sensor_id;sensor_type;location;lat;lon;timestamp;P1;durP1;ratioP1;P2;durP2;ratioP2
28862;SDS011;15994;51.796;13.006;2023-10-31T00:00:24;5.57;;;3.38;;
28862;SDS011;15994;51.796;13.006;2023-10-31T00:02:51;7.38;;;4.15;;
28862;SDS011;15994;51.796;13.006;2023-10-31T00:05:17;6.97;;;3.47;;
28862;SDS011;15994;51.796;13.006;2023-10-31T00:07:44;7.93;;;3.15;;
28862;SDS011;15994;51.796;13.006;2023-10-31T00:10:10;6.93;;;3.90;;
28862;SDS011;15994;51.796;13.006;2023-10-31T00:12:38;10.10;;;4.13;;
28862;SDS011;15994;51.796;13.006;2023-10-31T00:15:05;7.57;;;4.00;;
28862;SDS011;15994;51.796;13.006;2023-10-31T00:17:32;6.07;;;3.88;;
28862;SDS011;15994;51.796;13.006;2023-10-31T00:19:58;7.97;;;3.58;;
28862;SDS011;15994;51.796;13.006;2023-10-31T00:22:25;9.43;;;3.90;;
28862;SDS011;15994;51.796;13.006;2023-10-31T00:24:52;8.80;;;3.95;;
28862;SDS011;15994;51.796;13.006;2023-10-31T00:27:18;13.90;;;4.20;;
28862;SDS011;15994;51.796;13.006;2023-10-31T00:29:45;8.63;;;4.05;;
28862;SDS011;15994;51.796;13.006;2023-10-31T00:32:11;6.65;;;4.28;;
28862;SDS011;15994;51.796;13.006;2023-10-31T00:34:38;6.22;;;4.00;;
28862;SDS011;15994;51.796;13.006;2023-10-31T00:37:05;8.02;;;4.15;;
28862;SDS011;15994;51.796;13.006;2023-10-31T00:39:31;10.18;;;3.80;;
28862;SDS011;15994;51.796;13.006;2023-10-31T00:41:59;8.20;;;4.00;;
28862;SDS011;15994;51.796;13.006;2023-10-31T00:44:25;4.97;;;3.58;;
28862;SDS011;15994;51.796;13.006;2023-10-31T00:46:52;8.68;;;4.05;;
28862;SDS011;15994;51.796;13.006;2023-10-31T00:49:18;8.05;;;4.13;;
28862;SDS011;15994;51.796;13.006;2023-10-31T00:51:45;5.95;;;3.97;;
28862;SDS011;15994;51.796;13.006;2023-10-31T00:54:11;6.70;;;4.13;;
28862;SDS011;15994;51.796;13.006;2023-10-31T00:56:39;8.35;;;3.92;;
28862;SDS011;15994;51.796;13.006;2023-10-31T00:59:05;6.57;;;4.15;;
28862;SDS011;15994;51.796;13.006;2023-10-31T01:01:32;5.45;;;3.50;;
28862;SDS011;15994;51.796;13.006;2023-10-31T01:03:59;7.25;;;3.88;;
28862;SDS011;15994;51.796;13.006;2023-10-31T01:06:25;9.52;;;4.00;;
28862;SDS011;15994;51.796;13.006;2023-10-31T01:08:52;6.75;;;3.92;;
28862;SDS011;15994;51.796;13.006;2023-10-31T01:11:18;4.95;;;3.42;;
28862;SDS011;15994;51.796;13.006;2023-10-31T01:13:45;10.88;;;4.10;;
28862;SDS011;15994;51.796;13.006;2023-10-31T01:16:12;8.20;;;4.20;;
28862;SDS011;15994;51.796;13.006;2023-10-31T01:18:38;8.85;;;4.32;;
28862;SDS011;15994;51.796;13.006;2023-10-31T01:21:05;5.85;;;3.90;;
28862;SDS011;15994;51.796;13.006;2023-10-31T01:23:32;6.43;;;3.80;;
28862;SDS011;15994;51.796;13.006;2023-10-31T01:25:58;6.65;;;4.22;;
28862;SDS011;15994;51.796;13.006;2023-10-31T01:28:25;7.03;;;4.55;;
28862;SDS011;15994;51.796;13.006;2023-10-31T01:30:51;7.70;;;4.20;;
28862;SDS011;15994;51.796;13.006;2023-10-31T01:33:18;7.68;;;4.25;;
28862;SDS011;15994;51.796;13.006;2023-10-31T01:35:45;7.78;;;4.72;;
28862;SDS011;15994;51.796;13.006;2023-10-31T01:38:11;7.47;;;4.35;;
28862;SDS011;15994;51.796;13.006;2023-10-31T01:40:38;10.23;;;4.15;;
28862;SDS011;15994;51.796;13.006;2023-10-31T01:43:04;7.60;;;4.30;;
28862;SDS011;15994;51.796;13.006;2023-10-31T01:45:31;9.65;;;4.38;;
28862;SDS011;15994;51.796;13.006;2023-10-31T01:47:57;9.70;;;4.55;;
28862;SDS011;15994;51.796;13.006;2023-10-31T01:50:24;8.15;;;4.40;;
28862;SDS011;15994;51.796;13.006;2023-10-31T01:52:52;5.38;;;4.32;;
28862;SDS011;15994;51.796;13.006;2023-10-31T01:55:19;6.80;;;4.70;;
28862;SDS011;15994;51.796;13.006;2023-10-31T01:57:47;8.38;;;4.75;;
28862;SDS011;15994;51.796;13.006;2023-10-31T02:00:14;9.57;;;5.05;;
28862;SDS011;15994;51.796;13.006;2023-10-31T02:02:42;7.22;;;4.60;;
28862;SDS011;15994;51.796;13.006;2023-10-31T02:05:09;7.72;;;5.32;;
28862;SDS011;15994;51.796;13.006;2023-10-31T02:07:36;7.75;;;5.00;;
28862;SDS011;15994;51.796;13.006;2023-10-31T02:10:09;10.15;;;5.03;;
28862;SDS011;15994;51.796;13.006;2023-10-31T02:12:38;7.18;;;5.28;;
28862;SDS011;15994;51.796;13.006;2023-10-31T02:15:05;7.50;;;4.85;;
28862;SDS011;15994;51.796;13.006;2023-10-31T02:17:32;9.10;;;5.55;;
28862;SDS011;15994;51.796;13.006;2023-10-31T02:19:59;8.45;;;5.15;;
28862;SDS011;15994;51.796;13.006;2023-10-31T02:22:25;9.50;;;5.68;;
28862;SDS011;15994;51.796;13.006;2023-10-31T02:24:52;8.27;;;5.78;;
28862;SDS011;15994;51.796;13.006;2023-10-31T02:27:18;7.97;;;5.60;;
28862;SDS011;15994;51.796;13.006;2023-10-31T02:29:45;9.50;;;5.40;;
28862;SDS011;15994;51.796;13.006;2023-10-31T02:32:11;9.55;;;5.47;;
28862;SDS011;15994;51.796;13.006;2023-10-31T02:34:38;7.88;;;5.55;;
28862;SDS011;15994;51.796;13.006;2023-10-31T02:37:05;8.18;;;5.80;;
28862;SDS011;15994;51.796;13.006;2023-10-31T02:39:32;7.85;;;6.45;;
28862;SDS011;15994;51.796;13.006;2023-10-31T02:41:59;10.10;;;7.35;;
28862;SDS011;15994;51.796;13.006;2023-10-31T02:44:26;10.50;;;7.38;;
28862;SDS011;15994;51.796;13.006;2023-10-31T02:46:52;9.93;;;7.13;;
28862;SDS011;15994;51.796;13.006;2023-10-31T02:49:19;9.95;;;7.43;;
28862;SDS011;15994;51.796;13.006;2023-10-31T02:51:45;9.18;;;6.60;;
28862;SDS011;15994;51.796;13.006;2023-10-31T02:54:12;10.95;;;7.10;;
28862;SDS011;15994;51.796;13.006;2023-10-31T02:56:39;9.25;;;7.03;;
28862;SDS011;15994;51.796;13.006;2023-10-31T02:59:05;16.05;;;8.05;;
28862;SDS011;15994;51.796;13.006;2023-10-31T03:01:32;9.95;;;7.88;;
28862;SDS011;15994;51.796;13.006;2023-10-31T03:03:58;10.65;;;7.57;;
28862;SDS011;15994;51.796;13.006;2023-10-31T03:06:25;12.23;;;7.60;;
28862;SDS011;15994;51.796;13.006;2023-10-31T03:08:51;10.25;;;7.32;;
28862;SDS011;15994;51.796;13.006;2023-10-31T03:11:25;9.30;;;6.80;;
28862;SDS011;15994;51.796;13.006;2023-10-31T03:13:52;9.63;;;7.20;;
28862;SDS011;15994;51.796;13.006;2023-10-31T03:16:19;11.70;;;8.32;;
28862;SDS011;15994;51.796;13.006;2023-10-31T03:18:46;11.43;;;8.27;;
28862;SDS011;15994;51.796;13.006;2023-10-31T03:21:12;12.02;;;8.32;;
28862;SDS011;15994;51.796;13.006;2023-10-31T03:23:40;11.43;;;8.68;;
28862;SDS011;15994;51.796;13.006;2023-10-31T03:26:12;12.90;;;8.52;;
28862;SDS011;15994;51.796;13.006;2023-10-31T03:28:38;16.45;;;9.55;;
28862;SDS011;15994;51.796;13.006;2023-10-31T03:31:05;11.98;;;9.48;;
28862;SDS011;15994;51.796;13.006;2023-10-31T03:33:31;14.15;;;10.77;;
28862;SDS011;15994;51.796;13.006;2023-10-31T03:35:58;12.90;;;10.50;;
28862;SDS011;15994;51.796;13.006;2023-10-31T03:38:25;11.73;;;9.40;;
28862;SDS011;15994;51.796;13.006;2023-10-31T03:40:51;9.75;;;8.73;;
28862;SDS011;15994;51.796;13.006;2023-10-31T03:43:18;13.13;;;8.20;;
28862;SDS011;15994;51.796;13.006;2023-10-31T03:45:46;10.23;;;8.23;;
28862;SDS011;15994;51.796;13.006;2023-10-31T03:48:13;9.00;;;6.53;;
28862;SDS011;15994;51.796;13.006;2023-10-31T03:50:40;7.97;;;6.65;;
28862;SDS011;15994;51.796;13.006;2023-10-31T03:53:06;8.35;;;5.90;;
28862;SDS011;15994;51.796;13.006;2023-10-31T03:55:33;6.43;;;5.00;;
28862;SDS011;15994;51.796;13.006;2023-10-31T03:57:59;7.20;;;4.78;;
28862;SDS011;15994;51.796;13.006;2023-10-31T04:00:26;7.45;;;4.80;;
28862;SDS011;15994;51.796;13.006;2023-10-31T04:02:53;5.53;;;4.20;;
28862;SDS011;15994;51.796;13.006;2023-10-31T04:05:19;4.85;;;3.88;;
28862;SDS011;15994;51.796;13.006;2023-10-31T04:07:47;6.80;;;3.15;;
28862;SDS011;15994;51.796;13.006;2023-10-31T04:10:15;3.78;;;2.78;;
28862;SDS011;15994;51.796;13.006;2023-10-31T04:12:42;3.33;;;2.38;;
28862;SDS011;15994;51.796;13.006;2023-10-31T04:15:09;3.72;;;1.70;;
28862;SDS011;15994;51.796;13.006;2023-10-31T04:17:36;2.47;;;1.40;;
28862;SDS011;15994;51.796;13.006;2023-10-31T04:20:03;2.20;;;1.40;;
28862;SDS011;15994;51.796;13.006;2023-10-31T04:22:30;2.25;;;1.27;;
28862;SDS011;15994;51.796;13.006;2023-10-31T04:24:57;2.45;;;1.30;;
28862;SDS011;15994;51.796;13.006;2023-10-31T04:27:23;1.80;;;1.20;;
28862;SDS011;15994;51.796;13.006;2023-10-31T04:29:50;1.77;;;0.95;;
28862;SDS011;15994;51.796;13.006;2023-10-31T04:32:16;1.90;;;0.98;;
28862;SDS011;15994;51.796;13.006;2023-10-31T04:34:43;2.75;;;0.80;;
28862;SDS011;15994;51.796;13.006;2023-10-31T04:37:09;1.65;;;1.02;;
28862;SDS011;15994;51.796;13.006;2023-10-31T04:39:36;2.58;;;1.10;;
28862;SDS011;15994;51.796;13.006;2023-10-31T04:42:03;1.95;;;1.10;;
28862;SDS011;15994;51.796;13.006;2023-10-31T04:44:29;3.28;;;1.13;;
28862;SDS011;15994;51.796;13.006;2023-10-31T04:46:56;2.28;;;1.10;;
28862;SDS011;15994;51.796;13.006;2023-10-31T04:49:23;1.67;;;1.20;;
28862;SDS011;15994;51.796;13.006;2023-10-31T04:51:49;1.77;;;1.10;;
28862;SDS011;15994;51.796;13.006;2023-10-31T04:54:16;2.25;;;1.27;;
28862;SDS011;15994;51.796;13.006;2023-10-31T04:56:42;5.68;;;1.10;;
28862;SDS011;15994;51.796;13.006;2023-10-31T04:59:09;2.67;;;1.45;;
28862;SDS011;15994;51.796;13.006;2023-10-31T05:01:35;3.83;;;1.60;;
28862;SDS011;15994;51.796;13.006;2023-10-31T05:04:02;3.15;;;1.55;;
28862;SDS011;15994;51.796;13.006;2023-10-31T05:06:29;4.35;;;2.00;;
28862;SDS011;15994;51.796;13.006;2023-10-31T05:08:55;2.90;;;1.90;;
28862;SDS011;15994;51.796;13.006;2023-10-31T05:11:22;3.67;;;2.58;;
28862;SDS011;15994;51.796;13.006;2023-10-31T05:13:49;4.90;;;2.90;;
28862;SDS011;15994;51.796;13.006;2023-10-31T05:16:16;5.72;;;3.75;;
28862;SDS011;15994;51.796;13.006;2023-10-31T05:18:42;5.70;;;4.32;;
28862;SDS011;15994;51.796;13.006;2023-10-31T05:21:09;8.60;;;5.18;;
28862;SDS011;15994;51.796;13.006;2023-10-31T05:23:36;7.97;;;6.05;;
28862;SDS011;15994;51.796;13.006;2023-10-31T05:26:05;8.77;;;6.28;;
28862;SDS011;15994;51.796;13.006;2023-10-31T05:28:31;11.93;;;7.30;;
28862;SDS011;15994;51.796;13.006;2023-10-31T05:30:58;10.80;;;7.90;;
28862;SDS011;15994;51.796;13.006;2023-10-31T05:33:25;12.00;;;8.45;;
28862;SDS011;15994;51.796;13.006;2023-10-31T05:35:51;12.80;;;9.68;;
28862;SDS011;15994;51.796;13.006;2023-10-31T05:38:18;11.82;;;9.68;;
28862;SDS011;15994;51.796;13.006;2023-10-31T05:40:44;13.65;;;10.80;;
28862;SDS011;15994;51.796;13.006;2023-10-31T05:43:11;13.20;;;11.18;;
28862;SDS011;15994;51.796;13.006;2023-10-31T05:45:38;14.95;;;12.02;;
28862;SDS011;15994;51.796;13.006;2023-10-31T05:48:04;13.82;;;11.75;;
28862;SDS011;15994;51.796;13.006;2023-10-31T05:50:31;12.85;;;11.55;;
28862;SDS011;15994;51.796;13.006;2023-10-31T05:52:58;12.60;;;10.90;;
28862;SDS011;15994;51.796;13.006;2023-10-31T05:55:24;12.10;;;10.77;;
28862;SDS011;15994;51.796;13.006;2023-10-31T05:57:51;10.82;;;9.70;;
28862;SDS011;15994;51.796;13.006;2023-10-31T06:00:17;10.82;;;9.52;;
28862;SDS011;15994;51.796;13.006;2023-10-31T06:02:44;9.55;;;8.60;;
28862;SDS011;15994;51.796;13.006;2023-10-31T06:05:11;9.35;;;7.63;;
28862;SDS011;15994;51.796;13.006;2023-10-31T06:07:38;8.55;;;7.43;;
28862;SDS011;15994;51.796;13.006;2023-10-31T06:10:05;8.65;;;6.53;;
28862;SDS011;15994;51.796;13.006;2023-10-31T06:12:32;8.70;;;6.65;;
28862;SDS011;15994;51.796;13.006;2023-10-31T06:14:58;8.95;;;6.07;;
28862;SDS011;15994;51.796;13.006;2023-10-31T06:17:25;7.70;;;6.05;;
28862;SDS011;15994;51.796;13.006;2023-10-31T06:19:51;8.52;;;5.65;;
28862;SDS011;15994;51.796;13.006;2023-10-31T06:22:18;5.80;;;4.78;;
28862;SDS011;15994;51.796;13.006;2023-10-31T06:24:45;8.50;;;5.20;;
28862;SDS011;15994;51.796;13.006;2023-10-31T06:27:11;8.15;;;5.30;;
28862;SDS011;15994;51.796;13.006;2023-10-31T06:29:39;5.88;;;4.55;;
28862;SDS011;15994;51.796;13.006;2023-10-31T06:32:06;5.03;;;3.80;;
28862;SDS011;15994;51.796;13.006;2023-10-31T06:34:32;5.03;;;4.25;;
28862;SDS011;15994;51.796;13.006;2023-10-31T06:36:59;4.28;;;3.60;;
28862;SDS011;15994;51.796;13.006;2023-10-31T06:39:25;5.57;;;3.00;;
28862;SDS011;15994;51.796;13.006;2023-10-31T06:41:55;4.43;;;3.08;;
28862;SDS011;15994;51.796;13.006;2023-10-31T06:44:22;4.63;;;3.10;;
28862;SDS011;15994;51.796;13.006;2023-10-31T06:46:48;4.40;;;2.75;;
28862;SDS011;15994;51.796;13.006;2023-10-31T06:49:15;4.85;;;2.60;;
28862;SDS011;15994;51.796;13.006;2023-10-31T06:51:42;3.30;;;2.15;;
28862;SDS011;15994;51.796;13.006;2023-10-31T06:54:08;2.75;;;2.08;;
28862;SDS011;15994;51.796;13.006;2023-10-31T06:56:35;3.25;;;1.90;;
28862;SDS011;15994;51.796;13.006;2023-10-31T06:59:02;3.03;;;1.80;;
28862;SDS011;15994;51.796;13.006;2023-10-31T07:01:29;1.98;;;1.60;;
28862;SDS011;15994;51.796;13.006;2023-10-31T07:03:56;1.85;;;1.10;;
28862;SDS011;15994;51.796;13.006;2023-10-31T07:06:23;1.50;;;1.02;;
28862;SDS011;15994;51.796;13.006;2023-10-31T07:08:48;1.65;;;0.90;;
28862;SDS011;15994;51.796;13.006;2023-10-31T07:11:15;1.65;;;0.80;;
28862;SDS011;15994;51.796;13.006;2023-10-31T07:13:41;0.98;;;0.70;;
28862;SDS011;15994;51.796;13.006;2023-10-31T07:16:09;1.92;;;0.80;;
28862;SDS011;15994;51.796;13.006;2023-10-31T07:18:36;2.95;;;0.90;;
28862;SDS011;15994;51.796;13.006;2023-10-31T07:21:03;2.42;;;0.70;;
28862;SDS011;15994;51.796;13.006;2023-10-31T07:23:30;2.17;;;0.50;;
28862;SDS011;15994;51.796;13.006;2023-10-31T07:25:56;1.30;;;0.70;;
28862;SDS011;15994;51.796;13.006;2023-10-31T07:28:23;0.90;;;0.60;;
28862;SDS011;15994;51.796;13.006;2023-10-31T07:30:50;1.65;;;0.68;;
28862;SDS011;15994;51.796;13.006;2023-10-31T07:33:16;1.10;;;0.80;;
28862;SDS011;15994;51.796;13.006;2023-10-31T07:35:43;1.63;;;1.00;;
28862;SDS011;15994;51.796;13.006;2023-10-31T07:38:10;1.48;;;0.65;;
28862;SDS011;15994;51.796;13.006;2023-10-31T07:40:36;0.77;;;0.40;;
28862;SDS011;15994;51.796;13.006;2023-10-31T07:43:03;1.20;;;0.55;;
28862;SDS011;15994;51.796;13.006;2023-10-31T07:45:29;1.02;;;0.40;;
28862;SDS011;15994;51.796;13.006;2023-10-31T07:47:56;3.13;;;0.40;;
28862;SDS011;15994;51.796;13.006;2023-10-31T07:50:22;2.00;;;0.50;;
28862;SDS011;15994;51.796;13.006;2023-10-31T07:52:49;2.85;;;0.40;;
28862;SDS011;15994;51.796;13.006;2023-10-31T07:55:16;3.35;;;0.50;;
28862;SDS011;15994;51.796;13.006;2023-10-31T07:57:42;2.50;;;0.40;;
28862;SDS011;15994;51.796;13.006;2023-10-31T08:00:10;0.82;;;0.30;;
28862;SDS011;15994;51.796;13.006;2023-10-31T08:02:37;2.28;;;0.60;;
28862;SDS011;15994;51.796;13.006;2023-10-31T08:05:04;2.67;;;0.60;;
28862;SDS011;15994;51.796;13.006;2023-10-31T08:07:31;0.98;;;0.30;;
28862;SDS011;15994;51.796;13.006;2023-10-31T08:09:57;2.38;;;0.47;;
28862;SDS011;15994;51.796;13.006;2023-10-31T08:12:24;0.98;;;0.30;;
28862;SDS011;15994;51.796;13.006;2023-10-31T08:14:50;1.48;;;0.50;;
28862;SDS011;15994;51.796;13.006;2023-10-31T08:17:17;1.25;;;0.40;;
28862;SDS011;15994;51.796;13.006;2023-10-31T08:19:43;1.08;;;0.43;;
28862;SDS011;15994;51.796;13.006;2023-10-31T08:22:12;0.80;;;0.40;;
28862;SDS011;15994;51.796;13.006;2023-10-31T08:24:39;1.10;;;0.38;;
28862;SDS011;15994;51.796;13.006;2023-10-31T08:27:05;1.15;;;0.40;;
28862;SDS011;15994;51.796;13.006;2023-10-31T08:29:32;1.15;;;0.70;;
28862;SDS011;15994;51.796;13.006;2023-10-31T08:31:59;0.80;;;0.60;;
28862;SDS011;15994;51.796;13.006;2023-10-31T08:34:25;2.92;;;0.60;;
28862;SDS011;15994;51.796;13.006;2023-10-31T08:36:52;2.08;;;0.90;;
28862;SDS011;15994;51.796;13.006;2023-10-31T08:39:18;2.00;;;1.00;;
28862;SDS011;15994;51.796;13.006;2023-10-31T08:41:55;1.40;;;0.90;;
28862;SDS011;15994;51.796;13.006;2023-10-31T08:44:22;1.38;;;0.85;;
28862;SDS011;15994;51.796;13.006;2023-10-31T08:46:49;2.75;;;1.23;;
28862;SDS011;15994;51.796;13.006;2023-10-31T08:49:16;2.20;;;0.90;;
28862;SDS011;15994;51.796;13.006;2023-10-31T08:51:43;1.23;;;1.00;;
28862;SDS011;15994;51.796;13.006;2023-10-31T08:54:10;3.67;;;1.00;;
28862;SDS011;15994;51.796;13.006;2023-10-31T08:56:37;2.08;;;0.80;;
28862;SDS011;15994;51.796;13.006;2023-10-31T08:59:04;2.25;;;0.80;;
28862;SDS011;15994;51.796;13.006;2023-10-31T09:01:30;2.30;;;1.00;;
28862;SDS011;15994;51.796;13.006;2023-10-31T09:03:59;1.00;;;0.70;;
28862;SDS011;15994;51.796;13.006;2023-10-31T09:06:26;1.95;;;0.88;;
28862;SDS011;15994;51.796;13.006;2023-10-31T09:08:52;0.90;;;0.60;;
28862;SDS011;15994;51.796;13.006;2023-10-31T09:11:19;1.92;;;0.80;;
28862;SDS011;15994;51.796;13.006;2023-10-31T09:13:46;0.93;;;0.70;;
28862;SDS011;15994;51.796;13.006;2023-10-31T09:16:12;1.40;;;0.65;;
28862;SDS011;15994;51.796;13.006;2023-10-31T09:18:39;0.85;;;0.60;;
28862;SDS011;15994;51.796;13.006;2023-10-31T09:21:06;1.00;;;0.60;;
28862;SDS011;15994;51.796;13.006;2023-10-31T09:23:33;2.50;;;0.65;;
28862;SDS011;15994;51.796;13.006;2023-10-31T09:25:59;1.35;;;0.60;;
28862;SDS011;15994;51.796;13.006;2023-10-31T09:28:27;1.15;;;0.63;;
28862;SDS011;15994;51.796;13.006;2023-10-31T09:30:54;3.45;;;0.80;;
28862;SDS011;15994;51.796;13.006;2023-10-31T09:33:20;1.05;;;0.50;;
28862;SDS011;15994;51.796;13.006;2023-10-31T09:35:47;1.42;;;0.60;;
28862;SDS011;15994;51.796;13.006;2023-10-31T09:38:14;1.83;;;0.70;;
28862;SDS011;15994;51.796;13.006;2023-10-31T09:40:40;1.30;;;0.68;;
28862;SDS011;15994;51.796;13.006;2023-10-31T09:43:07;3.50;;;0.77;;
28862;SDS011;15994;51.796;13.006;2023-10-31T09:45:33;1.35;;;0.75;;
28862;SDS011;15994;51.796;13.006;2023-10-31T09:48:00;2.20;;;0.88;;
28862;SDS011;15994;51.796;13.006;2023-10-31T09:50:27;1.95;;;0.80;;
28862;SDS011;15994;51.796;13.006;2023-10-31T09:52:56;0.57;;;0.40;;
28862;SDS011;15994;51.796;13.006;2023-10-31T09:55:23;0.98;;;0.55;;
28862;SDS011;15994;51.796;13.006;2023-10-31T09:57:51;2.00;;;0.60;;
28862;SDS011;15994;51.796;13.006;2023-10-31T10:00:17;1.83;;;0.40;;
28862;SDS011;15994;51.796;13.006;2023-10-31T10:02:44;1.35;;;0.40;;
28862;SDS011;15994;51.796;13.006;2023-10-31T10:05:11;2.00;;;0.50;;
28862;SDS011;15994;51.796;13.006;2023-10-31T10:07:42;1.50;;;0.50;;
28862;SDS011;15994;51.796;13.006;2023-10-31T10:10:10;2.10;;;0.68;;
28862;SDS011;15994;51.796;13.006;2023-10-31T10:12:37;1.95;;;0.52;;
28862;SDS011;15994;51.796;13.006;2023-10-31T10:15:07;1.60;;;0.52;;
28862;SDS011;15994;51.796;13.006;2023-10-31T10:17:34;2.63;;;0.30;;
28862;SDS011;15994;51.796;13.006;2023-10-31T10:20:07;1.27;;;0.40;;
28862;SDS011;15994;51.796;13.006;2023-10-31T10:22:40;1.60;;;0.40;;
28862;SDS011;15994;51.796;13.006;2023-10-31T10:25:07;2.53;;;0.68;;
28862;SDS011;15994;51.796;13.006;2023-10-31T10:27:36;2.92;;;0.50;;
28862;SDS011;15994;51.796;13.006;2023-10-31T10:30:03;1.90;;;0.55;;
28862;SDS011;15994;51.796;13.006;2023-10-31T10:32:31;1.73;;;0.50;;
28862;SDS011;15994;51.796;13.006;2023-10-31T10:34:57;1.63;;;0.50;;
28862;SDS011;15994;51.796;13.006;2023-10-31T10:37:25;2.00;;;0.38;;
28862;SDS011;15994;51.796;13.006;2023-10-31T10:39:53;2.45;;;0.47;;
28862;SDS011;15994;51.796;13.006;2023-10-31T10:42:21;0.93;;;0.40;;
28862;SDS011;15994;51.796;13.006;2023-10-31T10:45:01;2.22;;;0.90;;
28862;SDS011;15994;51.796;13.006;2023-10-31T10:47:30;3.55;;;0.50;;
28862;SDS011;15994;51.796;13.006;2023-10-31T10:49:59;2.25;;;0.45;;
28862;SDS011;15994;51.796;13.006;2023-10-31T10:52:32;1.05;;;0.40;;
28862;SDS011;15994;51.796;13.006;2023-10-31T10:55:12;1.20;;;0.45;;
28862;SDS011;15994;51.796;13.006;2023-10-31T10:57:48;3.72;;;0.50;;
28862;SDS011;15994;51.796;13.006;2023-10-31T11:00:26;2.88;;;0.52;;
28862;SDS011;15994;51.796;13.006;2023-10-31T11:02:53;1.02;;;0.40;;
28862;SDS011;15994;51.796;13.006;2023-10-31T11:05:23;1.85;;;0.50;;
28862;SDS011;15994;51.796;13.006;2023-10-31T11:07:51;2.08;;;0.38;;
28862;SDS011;15994;51.796;13.006;2023-10-31T11:10:19;1.65;;;0.35;;
28862;SDS011;15994;51.796;13.006;2023-10-31T11:12:45;1.27;;;0.30;;
28862;SDS011;15994;51.796;13.006;2023-10-31T11:15:13;0.77;;;0.30;;
28862;SDS011;15994;51.796;13.006;2023-10-31T11:17:42;1.70;;;0.35;;
28862;SDS011;15994;51.796;13.006;2023-10-31T11:20:11;2.38;;;0.32;;
28862;SDS011;15994;51.796;13.006;2023-10-31T11:22:44;2.13;;;0.50;;
28862;SDS011;15994;51.796;13.006;2023-10-31T11:25:23;0.70;;;0.22;;
28862;SDS011;15994;51.796;13.006;2023-10-31T11:27:50;0.93;;;0.40;;
28862;SDS011;15994;51.796;13.006;2023-10-31T11:30:29;2.95;;;0.40;;
28862;SDS011;15994;51.796;13.006;2023-10-31T11:32:58;1.20;;;0.30;;
28862;SDS011;15994;51.796;13.006;2023-10-31T11:35:26;0.98;;;0.30;;
28862;SDS011;15994;51.796;13.006;2023-10-31T11:38:02;2.25;;;0.40;;
28862;SDS011;15994;51.796;13.006;2023-10-31T11:40:31;1.58;;;0.40;;
28862;SDS011;15994;51.796;13.006;2023-10-31T11:42:58;0.73;;;0.30;;
28862;SDS011;15994;51.796;13.006;2023-10-31T11:47:53;1.77;;;0.40;;
28862;SDS011;15994;51.796;13.006;2023-10-31T11:50:20;1.45;;;0.40;;
28862;SDS011;15994;51.796;13.006;2023-10-31T11:53:00;1.00;;;0.40;;
28862;SDS011;15994;51.796;13.006;2023-10-31T11:55:29;2.33;;;0.40;;
28862;SDS011;15994;51.796;13.006;2023-10-31T12:00:47;3.70;;;0.43;;
28862;SDS011;15994;51.796;13.006;2023-10-31T12:03:19;0.30;;;0.10;;
28862;SDS011;15994;51.796;13.006;2023-10-31T12:05:53;1.60;;;0.60;;
28862;SDS011;15994;51.796;13.006;2023-10-31T12:08:27;1.33;;;0.30;;
28862;SDS011;15994;51.796;13.006;2023-10-31T12:13:30;0.90;;;0.35;;
28862;SDS011;15994;51.796;13.006;2023-10-31T12:15:57;0.82;;;0.43;;
28862;SDS011;15994;51.796;13.006;2023-10-31T12:18:25;2.63;;;0.40;;
28862;SDS011;15994;51.796;13.006;2023-10-31T12:20:53;0.32;;;0.20;;
28862;SDS011;15994;51.796;13.006;2023-10-31T12:23:20;4.72;;;0.40;;
28862;SDS011;15994;51.796;13.006;2023-10-31T12:25:53;2.92;;;0.40;;
28862;SDS011;15994;51.796;13.006;2023-10-31T12:28:23;1.08;;;0.40;;
28862;SDS011;15994;51.796;13.006;2023-10-31T12:30:51;0.88;;;0.22;;
28862;SDS011;15994;51.796;13.006;2023-10-31T12:33:19;2.38;;;0.38;;
28862;SDS011;15994;51.796;13.006;2023-10-31T12:35:49;1.08;;;0.40;;
28862;SDS011;15994;51.796;13.006;2023-10-31T12:38:17;1.38;;;0.35;;
28862;SDS011;15994;51.796;13.006;2023-10-31T12:40:44;1.23;;;0.30;;
28862;SDS011;15994;51.796;13.006;2023-10-31T12:43:12;1.67;;;0.40;;
28862;SDS011;15994;51.796;13.006;2023-10-31T12:45:39;0.32;;;0.30;;
28862;SDS011;15994;51.796;13.006;2023-10-31T12:48:06;1.48;;;0.50;;
28862;SDS011;15994;51.796;13.006;2023-10-31T12:50:35;1.00;;;0.50;;
28862;SDS011;15994;51.796;13.006;2023-10-31T12:53:03;1.95;;;0.30;;
28862;SDS011;15994;51.796;13.006;2023-10-31T12:55:31;0.68;;;0.30;;
28862;SDS011;15994;51.796;13.006;2023-10-31T12:58:03;0.95;;;0.30;;
28862;SDS011;15994;51.796;13.006;2023-10-31T13:00:30;0.60;;;0.30;;
28862;SDS011;15994;51.796;13.006;2023-10-31T13:03:02;1.58;;;0.38;;
28862;SDS011;15994;51.796;13.006;2023-10-31T13:05:33;4.75;;;0.40;;
28862;SDS011;15994;51.796;13.006;2023-10-31T13:08:00;0.50;;;0.30;;
28862;SDS011;15994;51.796;13.006;2023-10-31T13:10:30;1.52;;;0.40;;
28862;SDS011;15994;51.796;13.006;2023-10-31T13:12:57;0.98;;;0.47;;
28862;SDS011;15994;51.796;13.006;2023-10-31T13:15:24;2.03;;;0.50;;
28862;SDS011;15994;51.796;13.006;2023-10-31T13:17:51;0.63;;;0.30;;
28862;SDS011;15994;51.796;13.006;2023-10-31T13:20:20;0.63;;;0.30;;
28862;SDS011;15994;51.796;13.006;2023-10-31T13:22:47;1.85;;;0.40;;
28862;SDS011;15994;51.796;13.006;2023-10-31T13:25:14;0.68;;;0.25;;
28862;SDS011;15994;51.796;13.006;2023-10-31T13:27:41;0.77;;;0.30;;
28862;SDS011;15994;51.796;13.006;2023-10-31T13:30:10;1.05;;;0.38;;
28862;SDS011;15994;51.796;13.006;2023-10-31T13:32:38;0.98;;;0.30;;
28862;SDS011;15994;51.796;13.006;2023-10-31T13:35:06;0.55;;;0.32;;
28862;SDS011;15994;51.796;13.006;2023-10-31T13:37:34;0.40;;;0.25;;
28862;SDS011;15994;51.796;13.006;2023-10-31T13:40:01;2.00;;;0.40;;
28862;SDS011;15994;51.796;13.006;2023-10-31T13:42:28;0.63;;;0.32;;
28862;SDS011;15994;51.796;13.006;2023-10-31T13:44:55;2.13;;;0.52;;
28862;SDS011;15994;51.796;13.006;2023-10-31T13:47:22;2.08;;;0.70;;
28862;SDS011;15994;51.796;13.006;2023-10-31T13:49:48;1.02;;;0.50;;
28862;SDS011;15994;51.796;13.006;2023-10-31T13:52:15;2.28;;;0.50;;
28862;SDS011;15994;51.796;13.006;2023-10-31T13:54:42;0.88;;;0.40;;
28862;SDS011;15994;51.796;13.006;2023-10-31T13:57:09;2.60;;;0.40;;
28862;SDS011;15994;51.796;13.006;2023-10-31T13:59:36;0.73;;;0.40;;
28862;SDS011;15994;51.796;13.006;2023-10-31T14:02:02;1.67;;;0.55;;
28862;SDS011;15994;51.796;13.006;2023-10-31T14:04:29;2.15;;;0.50;;
28862;SDS011;15994;51.796;13.006;2023-10-31T14:06:56;1.52;;;0.50;;
28862;SDS011;15994;51.796;13.006;2023-10-31T14:09:23;0.73;;;0.47;;
28862;SDS011;15994;51.796;13.006;2023-10-31T14:11:50;0.75;;;0.40;;
28862;SDS011;15994;51.796;13.006;2023-10-31T14:14:16;1.02;;;0.50;;
28862;SDS011;15994;51.796;13.006;2023-10-31T14:16:44;1.45;;;0.73;;
28862;SDS011;15994;51.796;13.006;2023-10-31T14:19:11;1.70;;;0.50;;
28862;SDS011;15994;51.796;13.006;2023-10-31T14:21:38;0.88;;;0.50;;
28862;SDS011;15994;51.796;13.006;2023-10-31T14:24:07;1.98;;;0.70;;
28862;SDS011;15994;51.796;13.006;2023-10-31T14:26:34;2.45;;;0.65;;
28862;SDS011;15994;51.796;13.006;2023-10-31T14:29:01;1.95;;;0.82;;
28862;SDS011;15994;51.796;13.006;2023-10-31T14:31:28;1.85;;;0.50;;
28862;SDS011;15994;51.796;13.006;2023-10-31T14:33:54;2.20;;;0.47;;
28862;SDS011;15994;51.796;13.006;2023-10-31T14:36:22;1.17;;;0.50;;
28862;SDS011;15994;51.796;13.006;2023-10-31T14:38:49;1.17;;;0.55;;
28862;SDS011;15994;51.796;13.006;2023-10-31T14:41:15;1.52;;;0.60;;